sensor_id;sensor_type;location;lat;lon;timestamp;pressure;altitude;pressure_sealevel;temperature;humidity
77147;BME280;66121;52.584;9.694;2022-12-20T00:00:57;101143.94;;;5.33;83.20
77147;BME280;66121;52.584;9.694;2022-12-20T00:03:22;101117.25;;;5.30;83.72
77147;BME280;66121;52.584;9.694;2022-12-20T00:05:48;101141.00;;;5.38;83.68
77147;BME280;66121;52.584;9.694;2022-12-20T00:08:13;101125.72;;;5.37;82.94
77147;BME280;66121;52.584;9.694;2022-12-20T00:10:41;101137.03;;;5.48;83.38
77147;BME280;66121;52.584;9.694;2022-12-20T00:13:07;101139.31;;;5.46;83.71
77147;BME280;66121;52.584;9.694;2022-12-20T00:15:33;101129.13;;;5.34;83.35
77147;BME280;66121;52.584;9.694;2022-12-20T00:17:58;101111.41;;;5.19;83.79
77147;BME280;66121;52.584;9.694;2022-12-20T00:20:25;101119.94;;;5.18;85.04
77147;BME280;66121;52.584;9.694;2022-12-20T00:22:51;101111.34;;;5.07;85.44
77147;BME280;66121;52.584;9.694;2022-12-20T00:25:16;101102.09;;;5.00;84.95
77147;BME280;66121;52.584;9.694;2022-12-20T00:27:42;101090.09;;;4.92;85.71
77147;BME280;66121;52.584;9.694;2022-12-20T00:30:08;101077.44;;;4.88;85.45
77147;BME280;66121;52.584;9.694;2022-12-20T00:32:33;101089.22;;;5.00;85.71
77147;BME280;66121;52.584;9.694;2022-12-20T00:34:59;101089.69;;;5.02;85.63
77147;BME280;66121;52.584;9.694;2022-12-20T00:37:24;101083.41;;;5.02;85.45
77147;BME280;66121;52.584;9.694;2022-12-20T00:39:49;101069.28;;;5.00;85.23
77147;BME280;66121;52.584;9.694;2022-12-20T00:42:15;101073.72;;;5.04;85.54
77147;BME280;66121;52.584;9.694;2022-12-20T00:44:40;101085.44;;;5.26;85.63
77147;BME280;66121;52.584;9.694;2022-12-20T00:47:05;101076.84;;;5.15;85.30
77147;BME280;66121;52.584;9.694;2022-12-20T00:49:31;101093.22;;;5.36;85.33
77147;BME280;66121;52.584;9.694;2022-12-20T00:51:56;101081.56;;;5.39;84.61
77147;BME280;66121;52.584;9.694;2022-12-20T00:54:22;101076.38;;;5.46;84.80
77147;BME280;66121;52.584;9.694;2022-12-20T00:56:47;101075.56;;;5.45;85.42
77147;BME280;66121;52.584;9.694;2022-12-20T00:59:12;101083.56;;;5.62;84.24
77147;BME280;66121;52.584;9.694;2022-12-20T01:01:37;101070.91;;;5.58;84.54
77147;BME280;66121;52.584;9.694;2022-12-20T01:04:03;101089.22;;;5.90;83.79
77147;BME280;66121;52.584;9.694;2022-12-20T01:06:29;101084.63;;;5.82;84.20
77147;BME280;66121;52.584;9.694;2022-12-20T01:08:56;101087.28;;;5.91;83.89
77147;BME280;66121;52.584;9.694;2022-12-20T01:11:24;101085.06;;;5.84;84.46
77147;BME280;66121;52.584;9.694;2022-12-20T01:13:52;101076.41;;;5.82;83.61
77147;BME280;66121;52.584;9.694;2022-12-20T01:16:22;101089.44;;;5.85;83.83
77147;BME280;66121;52.584;9.694;2022-12-20T01:18:49;101097.00;;;6.00;83.25
77147;BME280;66121;52.584;9.694;2022-12-20T01:21:17;101087.53;;;5.86;84.20
77147;BME280;66121;52.584;9.694;2022-12-20T01:23:42;101052.56;;;5.58;84.45
77147;BME280;66121;52.584;9.694;2022-12-20T01:26:12;101074.25;;;5.75;84.36
77147;BME280;66121;52.584;9.694;2022-12-20T01:28:40;101067.28;;;5.78;84.41
77147;BME280;66121;52.584;9.694;2022-12-20T01:31:11;101075.25;;;5.71;84.99
77147;BME280;66121;52.584;9.694;2022-12-20T01:33:37;101056.66;;;5.64;84.86
77147;BME280;66121;52.584;9.694;2022-12-20T01:36:10;101077.53;;;5.69;84.54
77147;BME280;66121;52.584;9.694;2022-12-20T01:38:35;101069.31;;;5.69;84.81
77147;BME280;66121;52.584;9.694;2022-12-20T01:41:01;101073.44;;;5.75;85.14
77147;BME280;66121;52.584;9.694;2022-12-20T01:43:55;101063.03;;;5.68;85.01
77147;BME280;66121;52.584;9.694;2022-12-20T01:46:24;101061.31;;;5.76;85.14
77147;BME280;66121;52.584;9.694;2022-12-20T01:48:54;101063.06;;;5.80;85.23
77147;BME280;66121;52.584;9.694;2022-12-20T01:51:22;101073.94;;;5.89;85.30
77147;BME280;66121;52.584;9.694;2022-12-20T01:53:51;101069.59;;;6.12;83.85
77147;BME280;66121;52.584;9.694;2022-12-20T01:56:19;101065.16;;;6.08;84.50
77147;BME280;66121;52.584;9.694;2022-12-20T01:58:45;101053.75;;;6.06;84.06
77147;BME280;66121;52.584;9.694;2022-12-20T02:01:12;101051.91;;;6.10;84.43
77147;BME280;66121;52.584;9.694;2022-12-20T02:03:38;101047.34;;;6.02;84.72
77147;BME280;66121;52.584;9.694;2022-12-20T02:06:16;101043.00;;;6.13;84.10
77147;BME280;66121;52.584;9.694;2022-12-20T02:08:43;101033.41;;;6.07;84.72
77147;BME280;66121;52.584;9.694;2022-12-20T02:13:59;101042.75;;;6.30;84.00
77147;BME280;66121;52.584;9.694;2022-12-20T02:16:35;101048.56;;;6.40;84.24
77147;BME280;66121;52.584;9.694;2022-12-20T02:19:35;101044.09;;;6.36;83.88
77147;BME280;66121;52.584;9.694;2022-12-20T02:27:34;101056.78;;;6.68;82.91
77147;BME280;66121;52.584;9.694;2022-12-20T02:30:06;101045.81;;;6.68;82.73
77147;BME280;66121;52.584;9.694;2022-12-20T02:32:53;101028.97;;;6.54;82.94
77147;BME280;66121;52.584;9.694;2022-12-20T02:35:24;101029.16;;;6.61;83.07
77147;BME280;66121;52.584;9.694;2022-12-20T02:37:54;101036.69;;;6.64;83.06
77147;BME280;66121;52.584;9.694;2022-12-20T02:40:23;101034.53;;;6.70;83.51
77147;BME280;66121;52.584;9.694;2022-12-20T02:42:53;101025.84;;;6.68;83.00
77147;BME280;66121;52.584;9.694;2022-12-20T02:45:22;101030.84;;;6.78;82.84
77147;BME280;66121;52.584;9.694;2022-12-20T02:48:09;101033.53;;;6.62;82.97
77147;BME280;66121;52.584;9.694;2022-12-20T02:50:44;101015.06;;;6.47;83.61
77147;BME280;66121;52.584;9.694;2022-12-20T02:53:11;101031.72;;;6.54;83.74
77147;BME280;66121;52.584;9.694;2022-12-20T02:55:51;101021.34;;;6.47;83.63
77147;BME280;66121;52.584;9.694;2022-12-20T02:58:29;101019.28;;;6.44;83.82
77147;BME280;66121;52.584;9.694;2022-12-20T03:00:58;101009.69;;;6.51;83.52
77147;BME280;66121;52.584;9.694;2022-12-20T03:03:30;101001.00;;;6.48;83.61
77147;BME280;66121;52.584;9.694;2022-12-20T03:05:56;101012.03;;;6.64;83.38
77147;BME280;66121;52.584;9.694;2022-12-20T03:08:22;101024.34;;;6.70;83.44
77147;BME280;66121;52.584;9.694;2022-12-20T03:10:49;101010.66;;;6.58;84.13
77147;BME280;66121;52.584;9.694;2022-12-20T03:13:16;101014.78;;;6.64;83.73
77147;BME280;66121;52.584;9.694;2022-12-20T03:15:41;101010.41;;;6.63;83.23
77147;BME280;66121;52.584;9.694;2022-12-20T03:18:07;101011.78;;;6.69;83.74
77147;BME280;66121;52.584;9.694;2022-12-20T03:20:33;101009.59;;;6.75;83.86
77147;BME280;66121;52.584;9.694;2022-12-20T03:22:59;101006.75;;;6.71;83.56
77147;BME280;66121;52.584;9.694;2022-12-20T03:25:24;100996.94;;;6.70;83.64
77147;BME280;66121;52.584;9.694;2022-12-20T03:27:49;101006.16;;;6.78;83.44
77147;BME280;66121;52.584;9.694;2022-12-20T03:30:15;101002.63;;;6.77;83.74
77147;BME280;66121;52.584;9.694;2022-12-20T03:32:40;101009.66;;;6.90;83.83
77147;BME280;66121;52.584;9.694;2022-12-20T03:35:06;101015.13;;;7.06;83.29
77147;BME280;66121;52.584;9.694;2022-12-20T03:37:31;100995.69;;;6.95;83.05
77147;BME280;66121;52.584;9.694;2022-12-20T03:39:57;100998.06;;;6.97;83.14
77147;BME280;66121;52.584;9.694;2022-12-20T03:42:22;101005.41;;;7.08;83.09
77147;BME280;66121;52.584;9.694;2022-12-20T03:44:47;100991.97;;;7.19;82.71
77147;BME280;66121;52.584;9.694;2022-12-20T03:47:12;100998.16;;;7.16;82.66
77147;BME280;66121;52.584;9.694;2022-12-20T03:49:38;101001.44;;;7.22;82.64
77147;BME280;66121;52.584;9.694;2022-12-20T03:52:04;101001.72;;;7.32;82.34
77147;BME280;66121;52.584;9.694;2022-12-20T03:54:29;100992.97;;;7.27;82.17
77147;BME280;66121;52.584;9.694;2022-12-20T03:56:54;100986.25;;;7.40;81.99
77147;BME280;66121;52.584;9.694;2022-12-20T03:59:20;100985.44;;;7.39;81.76
77147;BME280;66121;52.584;9.694;2022-12-20T04:01:45;100970.19;;;7.26;81.96
77147;BME280;66121;52.584;9.694;2022-12-20T04:04:12;100985.28;;;7.48;81.67
77147;BME280;66121;52.584;9.694;2022-12-20T04:06:38;100982.59;;;7.51;81.08
77147;BME280;66121;52.584;9.694;2022-12-20T04:09:03;100986.50;;;7.50;81.14
77147;BME280;66121;52.584;9.694;2022-12-20T04:11:28;100987.13;;;7.44;81.14
77147;BME280;66121;52.584;9.694;2022-12-20T04:13:54;101008.28;;;7.59;80.86
77147;BME280;66121;52.584;9.694;2022-12-20T04:16:24;101006.94;;;7.68;80.52
77147;BME280;66121;52.584;9.694;2022-12-20T04:18:50;101003.59;;;7.59;80.33
77147;BME280;66121;52.584;9.694;2022-12-20T04:21:21;100992.16;;;7.57;80.18
77147;BME280;66121;52.584;9.694;2022-12-20T04:23:46;100998.69;;;7.68;80.08
77147;BME280;66121;52.584;9.694;2022-12-20T04:26:12;101016.41;;;7.71;80.27
77147;BME280;66121;52.584;9.694;2022-12-20T04:28:37;101011.03;;;7.74;79.88
77147;BME280;66121;52.584;9.694;2022-12-20T04:31:03;101009.50;;;7.77;80.29
77147;BME280;66121;52.584;9.694;2022-12-20T04:33:28;101007.75;;;7.85;79.79
77147;BME280;66121;52.584;9.694;2022-12-20T04:35:54;101023.41;;;7.84;80.10
77147;BME280;66121;52.584;9.694;2022-12-20T04:38:22;101020.31;;;7.86;79.75
77147;BME280;66121;52.584;9.694;2022-12-20T04:40:52;101019.44;;;7.82;79.77
77147;BME280;66121;52.584;9.694;2022-12-20T04:43:18;101025.78;;;7.86;79.85
77147;BME280;66121;52.584;9.694;2022-12-20T04:45:46;101017.22;;;7.87;79.63
77147;BME280;66121;52.584;9.694;2022-12-20T04:48:13;101016.00;;;7.69;79.63
77147;BME280;66121;52.584;9.694;2022-12-20T04:50:38;101013.25;;;7.69;80.25
77147;BME280;66121;52.584;9.694;2022-12-20T04:53:04;101036.88;;;7.89;79.88
77147;BME280;66121;52.584;9.694;2022-12-20T04:55:48;101005.97;;;7.76;79.33
77147;BME280;66121;52.584;9.694;2022-12-20T04:58:13;101015.19;;;7.84;79.54
77147;BME280;66121;52.584;9.694;2022-12-20T05:00:38;101023.16;;;7.89;79.26
77147;BME280;66121;52.584;9.694;2022-12-20T05:03:04;101019.06;;;7.83;79.22
77147;BME280;66121;52.584;9.694;2022-12-20T05:07:49;101030.84;;;7.84;79.99
77147;BME280;66121;52.584;9.694;2022-12-20T05:10:14;101024.81;;;7.94;80.18
77147;BME280;66121;52.584;9.694;2022-12-20T05:12:39;101031.28;;;7.86;80.60
77147;BME280;66121;52.584;9.694;2022-12-20T05:15:05;101028.22;;;7.87;81.15
77147;BME280;66121;52.584;9.694;2022-12-20T05:17:32;101018.03;;;7.72;81.15
77147;BME280;66121;52.584;9.694;2022-12-20T05:19:58;101022.34;;;7.73;81.23
77147;BME280;66121;52.584;9.694;2022-12-20T05:22:23;101029.72;;;7.85;81.32
77147;BME280;66121;52.584;9.694;2022-12-20T05:25:09;101029.09;;;7.75;80.94
77147;BME280;66121;52.584;9.694;2022-12-20T05:27:53;101016.69;;;7.66;81.88
77147;BME280;66121;52.584;9.694;2022-12-20T05:30:19;101020.34;;;7.70;81.42
77147;BME280;66121;52.584;9.694;2022-12-20T05:32:44;101007.31;;;7.67;81.32
77147;BME280;66121;52.584;9.694;2022-12-20T05:35:09;101014.47;;;7.71;81.30
77147;BME280;66121;52.584;9.694;2022-12-20T05:37:34;101014.56;;;7.75;80.96
77147;BME280;66121;52.584;9.694;2022-12-20T05:40:00;101011.91;;;7.78;80.68
77147;BME280;66121;52.584;9.694;2022-12-20T05:42:25;101009.25;;;7.66;81.11
77147;BME280;66121;52.584;9.694;2022-12-20T05:44:50;100992.88;;;7.70;80.57
77147;BME280;66121;52.584;9.694;2022-12-20T05:47:16;101010.22;;;7.74;80.90
77147;BME280;66121;52.584;9.694;2022-12-20T05:49:41;101019.34;;;7.78;80.52
77147;BME280;66121;52.584;9.694;2022-12-20T05:52:06;101022.88;;;7.78;80.65
77147;BME280;66121;52.584;9.694;2022-12-20T05:54:32;101008.63;;;7.73;80.67
77147;BME280;66121;52.584;9.694;2022-12-20T05:56:57;101015.06;;;7.80;80.26
77147;BME280;66121;52.584;9.694;2022-12-20T05:59:22;101005.88;;;7.73;80.54
77147;BME280;66121;52.584;9.694;2022-12-20T06:01:48;101005.81;;;7.69;80.37
77147;BME280;66121;52.584;9.694;2022-12-20T06:04:13;101012.25;;;7.77;80.36
77147;BME280;66121;52.584;9.694;2022-12-20T06:06:38;101004.81;;;7.77;80.19
77147;BME280;66121;52.584;9.694;2022-12-20T06:09:04;101005.53;;;7.74;80.42
77147;BME280;66121;52.584;9.694;2022-12-20T06:11:29;101000.91;;;7.78;80.69
77147;BME280;66121;52.584;9.694;2022-12-20T06:13:54;100991.44;;;7.76;80.16
77147;BME280;66121;52.584;9.694;2022-12-20T06:16:20;101010.81;;;7.83;80.20
77147;BME280;66121;52.584;9.694;2022-12-20T06:18:47;101007.03;;;7.88;79.98
77147;BME280;66121;52.584;9.694;2022-12-20T06:21:12;100989.75;;;7.71;80.47
77147;BME280;66121;52.584;9.694;2022-12-20T06:23:38;100986.09;;;7.83;79.58
77147;BME280;66121;52.584;9.694;2022-12-20T06:26:04;100996.53;;;7.93;79.72
77147;BME280;66121;52.584;9.694;2022-12-20T06:28:30;101000.03;;;7.90;79.51
77147;BME280;66121;52.584;9.694;2022-12-20T06:30:57;101003.00;;;8.01;78.88
77147;BME280;66121;52.584;9.694;2022-12-20T06:33:23;101000.19;;;7.97;78.98
77147;BME280;66121;52.584;9.694;2022-12-20T06:35:49;101014.91;;;7.89;79.43
77147;BME280;66121;52.584;9.694;2022-12-20T06:38:15;100993.03;;;7.93;79.19
77147;BME280;66121;52.584;9.694;2022-12-20T06:40:40;100987.69;;;8.00;79.26
77147;BME280;66121;52.584;9.694;2022-12-20T06:43:06;100996.50;;;8.09;79.06
77147;BME280;66121;52.584;9.694;2022-12-20T06:45:32;100988.97;;;8.06;78.44
77147;BME280;66121;52.584;9.694;2022-12-20T06:47:57;100979.78;;;7.98;79.09
77147;BME280;66121;52.584;9.694;2022-12-20T06:50:23;100982.31;;;7.88;79.56
77147;BME280;66121;52.584;9.694;2022-12-20T06:52:49;100983.16;;;7.92;79.03
77147;BME280;66121;52.584;9.694;2022-12-20T06:55:14;100988.75;;;7.95;78.99
77147;BME280;66121;52.584;9.694;2022-12-20T06:57:39;100992.81;;;8.01;78.77
77147;BME280;66121;52.584;9.694;2022-12-20T07:00:05;101003.78;;;8.01;78.91
77147;BME280;66121;52.584;9.694;2022-12-20T07:02:32;100999.16;;;8.05;78.79
77147;BME280;66121;52.584;9.694;2022-12-20T07:04:57;100996.88;;;8.07;78.84
77147;BME280;66121;52.584;9.694;2022-12-20T07:07:23;100986.66;;;8.08;78.68
77147;BME280;66121;52.584;9.694;2022-12-20T07:09:48;100981.28;;;7.96;78.38
77147;BME280;66121;52.584;9.694;2022-12-20T07:14:03;100982.78;;;8.09;78.97
77147;BME280;66121;52.584;9.694;2022-12-20T07:16:28;100981.63;;;8.10;78.84
77147;BME280;66121;52.584;9.694;2022-12-20T07:18:56;100981.78;;;8.17;78.80
77147;BME280;66121;52.584;9.694;2022-12-20T07:21:21;100974.09;;;8.07;78.47
77147;BME280;66121;52.584;9.694;2022-12-20T07:23:46;100976.19;;;8.13;78.85
77147;BME280;66121;52.584;9.694;2022-12-20T07:26:13;100979.88;;;8.02;79.28
77147;BME280;66121;52.584;9.694;2022-12-20T07:28:39;100963.00;;;8.03;79.66
77147;BME280;66121;52.584;9.694;2022-12-20T07:31:04;100956.84;;;7.91;79.07
77147;BME280;66121;52.584;9.694;2022-12-20T07:33:31;100970.03;;;8.01;79.54
77147;BME280;66121;52.584;9.694;2022-12-20T07:36:12;100973.03;;;7.96;79.87
77147;BME280;66121;52.584;9.694;2022-12-20T07:38:38;100963.81;;;8.04;79.21
77147;BME280;66121;52.584;9.694;2022-12-20T07:41:12;100972.72;;;8.16;79.08
77147;BME280;66121;52.584;9.694;2022-12-20T07:43:37;100978.31;;;8.20;79.10
77147;BME280;66121;52.584;9.694;2022-12-20T07:46:04;100976.00;;;8.22;78.74
77147;BME280;66121;52.584;9.694;2022-12-20T07:48:29;100973.88;;;8.15;78.71
77147;BME280;66121;52.584;9.694;2022-12-20T07:50:58;100975.75;;;8.27;78.55
77147;BME280;66121;52.584;9.694;2022-12-20T07:53:26;100973.00;;;8.27;78.77
77147;BME280;66121;52.584;9.694;2022-12-20T07:55:53;100979.78;;;8.33;78.57
77147;BME280;66121;52.584;9.694;2022-12-20T07:58:20;100964.97;;;8.37;78.65
77147;BME280;66121;52.584;9.694;2022-12-20T08:00:46;100970.63;;;8.45;78.17
77147;BME280;66121;52.584;9.694;2022-12-20T08:03:16;100973.00;;;8.46;78.50
77147;BME280;66121;52.584;9.694;2022-12-20T08:05:46;100984.72;;;8.43;78.52
77147;BME280;66121;52.584;9.694;2022-12-20T08:08:16;100978.44;;;8.43;78.66
77147;BME280;66121;52.584;9.694;2022-12-20T08:10:42;100982.09;;;8.50;78.46
77147;BME280;66121;52.584;9.694;2022-12-20T08:13:07;100979.16;;;8.59;78.20
77147;BME280;66121;52.584;9.694;2022-12-20T08:15:34;100960.19;;;8.54;78.60
77147;BME280;66121;52.584;9.694;2022-12-20T08:18:00;100961.50;;;8.60;78.31
77147;BME280;66121;52.584;9.694;2022-12-20T08:20:26;100946.53;;;8.57;78.35
77147;BME280;66121;52.584;9.694;2022-12-20T08:22:51;100953.38;;;8.67;78.16
77147;BME280;66121;52.584;9.694;2022-12-20T08:25:17;100949.03;;;8.66;78.08
77147;BME280;66121;52.584;9.694;2022-12-20T08:27:42;100952.50;;;8.63;78.13
77147;BME280;66121;52.584;9.694;2022-12-20T08:30:08;100950.75;;;8.74;77.98
77147;BME280;66121;52.584;9.694;2022-12-20T08:32:35;100950.91;;;8.81;77.55
77147;BME280;66121;52.584;9.694;2022-12-20T08:35:00;100953.84;;;8.91;78.07
77147;BME280;66121;52.584;9.694;2022-12-20T08:37:26;100938.19;;;8.95;77.66
77147;BME280;66121;52.584;9.694;2022-12-20T08:39:51;100935.81;;;8.94;77.48
77147;BME280;66121;52.584;9.694;2022-12-20T08:42:16;100934.22;;;8.93;77.71
77147;BME280;66121;52.584;9.694;2022-12-20T08:44:42;100924.38;;;8.92;77.71
77147;BME280;66121;52.584;9.694;2022-12-20T08:47:08;100931.03;;;8.91;77.98
77147;BME280;66121;52.584;9.694;2022-12-20T08:49:34;100929.50;;;8.93;77.44
77147;BME280;66121;52.584;9.694;2022-12-20T08:52:00;100921.03;;;9.02;77.59
77147;BME280;66121;52.584;9.694;2022-12-20T08:54:25;100927.38;;;9.06;77.24
77147;BME280;66121;52.584;9.694;2022-12-20T08:56:51;100942.59;;;9.23;77.37
77147;BME280;66121;52.584;9.694;2022-12-20T08:59:16;100914.84;;;9.08;76.89
77147;BME280;66121;52.584;9.694;2022-12-20T09:01:42;100933.97;;;9.24;76.54
77147;BME280;66121;52.584;9.694;2022-12-20T09:04:09;100936.00;;;9.27;76.31
77147;BME280;66121;52.584;9.694;2022-12-20T09:06:34;100936.44;;;9.29;76.62
77147;BME280;66121;52.584;9.694;2022-12-20T09:09:00;100931.53;;;9.19;76.50
77147;BME280;66121;52.584;9.694;2022-12-20T09:11:26;100934.78;;;9.25;76.39
77147;BME280;66121;52.584;9.694;2022-12-20T09:13:54;100904.75;;;9.16;76.18
77147;BME280;66121;52.584;9.694;2022-12-20T09:16:23;100935.00;;;9.39;76.39
77147;BME280;66121;52.584;9.694;2022-12-20T09:18:50;100932.19;;;9.35;76.50
77147;BME280;66121;52.584;9.694;2022-12-20T09:21:16;100927.97;;;9.41;75.71
77147;BME280;66121;52.584;9.694;2022-12-20T09:23:41;100913.41;;;9.41;76.38
77147;BME280;66121;52.584;9.694;2022-12-20T09:26:10;100918.75;;;9.56;75.13
77147;BME280;66121;52.584;9.694;2022-12-20T09:28:35;100911.31;;;9.57;76.13
77147;BME280;66121;52.584;9.694;2022-12-20T09:31:04;100909.78;;;9.59;75.42
77147;BME280;66121;52.584;9.694;2022-12-20T09:33:31;100905.50;;;9.65;75.26
77147;BME280;66121;52.584;9.694;2022-12-20T09:35:57;100901.50;;;9.59;74.59
77147;BME280;66121;52.584;9.694;2022-12-20T09:38:23;100896.19;;;9.73;74.76
77147;BME280;66121;52.584;9.694;2022-12-20T09:40:52;100893.09;;;9.79;74.41
77147;BME280;66121;52.584;9.694;2022-12-20T09:43:18;100892.69;;;9.77;74.03
77147;BME280;66121;52.584;9.694;2022-12-20T09:45:46;100879.34;;;9.79;74.64
77147;BME280;66121;52.584;9.694;2022-12-20T09:48:18;100890.84;;;9.84;74.41
77147;BME280;66121;52.584;9.694;2022-12-20T09:50:58;100895.94;;;9.82;73.76
77147;BME280;66121;52.584;9.694;2022-12-20T09:56:05;100890.44;;;9.86;73.21
77147;BME280;66121;52.584;9.694;2022-12-20T09:59:00;100901.88;;;9.88;73.07
77147;BME280;66121;52.584;9.694;2022-12-20T10:01:28;100898.81;;;9.93;73.20
77147;BME280;66121;52.584;9.694;2022-12-20T10:03:56;100897.25;;;9.92;73.65
77147;BME280;66121;52.584;9.694;2022-12-20T10:09:35;100875.59;;;9.94;73.34
77147;BME280;66121;52.584;9.694;2022-12-20T10:25:39;100864.19;;;10.25;72.46
77147;BME280;66121;52.584;9.694;2022-12-20T10:28:12;100864.28;;;10.32;72.49
77147;BME280;66121;52.584;9.694;2022-12-20T10:30:39;100862.38;;;10.40;71.91
77147;BME280;66121;52.584;9.694;2022-12-20T10:33:15;100849.44;;;10.44;71.15
77147;BME280;66121;52.584;9.694;2022-12-20T10:35:42;100861.38;;;10.55;70.63
77147;BME280;66121;52.584;9.694;2022-12-20T10:38:10;100856.66;;;10.55;70.94
77147;BME280;66121;52.584;9.694;2022-12-20T10:41:00;100847.47;;;10.84;70.69
77147;BME280;66121;52.584;9.694;2022-12-20T10:43:27;100833.88;;;10.65;70.78
77147;BME280;66121;52.584;9.694;2022-12-20T10:46:05;100836.28;;;10.67;70.26
77147;BME280;66121;52.584;9.694;2022-12-20T10:48:33;100840.59;;;10.64;69.82
77147;BME280;66121;52.584;9.694;2022-12-20T10:53:33;100842.97;;;10.66;69.89
77147;BME280;66121;52.584;9.694;2022-12-20T11:01:19;100831.69;;;10.41;70.93
77147;BME280;66121;52.584;9.694;2022-12-20T11:03:52;100840.50;;;10.57;70.56
77147;BME280;66121;52.584;9.694;2022-12-20T11:06:19;100836.44;;;10.44;70.91
77147;BME280;66121;52.584;9.694;2022-12-20T11:08:45;100834.78;;;10.40;70.61
77147;BME280;66121;52.584;9.694;2022-12-20T11:11:16;100834.09;;;10.46;71.08
77147;BME280;66121;52.584;9.694;2022-12-20T11:13:44;100824.69;;;10.51;70.58
77147;BME280;66121;52.584;9.694;2022-12-20T11:16:24;100826.28;;;10.52;71.10
77147;BME280;66121;52.584;9.694;2022-12-20T11:22:10;100827.97;;;10.63;70.14
77147;BME280;66121;52.584;9.694;2022-12-20T11:25:23;100807.13;;;10.69;70.02
77147;BME280;66121;52.584;9.694;2022-12-20T11:30:52;100813.63;;;10.91;70.01
77147;BME280;66121;52.584;9.694;2022-12-20T11:38:39;100780.94;;;11.00;69.19
77147;BME280;66121;52.584;9.694;2022-12-20T11:41:16;100794.06;;;11.14;68.75
77147;BME280;66121;52.584;9.694;2022-12-20T11:44:06;100792.50;;;11.16;68.86
77147;BME280;66121;52.584;9.694;2022-12-20T11:49:40;100803.16;;;11.18;68.43
77147;BME280;66121;52.584;9.694;2022-12-20T11:52:34;100788.16;;;11.15;68.75
77147;BME280;66121;52.584;9.694;2022-12-20T11:57:51;100789.38;;;11.21;68.13
77147;BME280;66121;52.584;9.694;2022-12-20T12:00:22;100792.94;;;11.22;68.76
77147;BME280;66121;52.584;9.694;2022-12-20T12:02:53;100784.22;;;11.20;68.54
77147;BME280;66121;52.584;9.694;2022-12-20T12:05:34;100778.66;;;11.13;68.12
77147;BME280;66121;52.584;9.694;2022-12-20T12:08:08;100790.59;;;11.27;68.24
77147;BME280;66121;52.584;9.694;2022-12-20T12:10:40;100774.75;;;11.14;68.13
77147;BME280;66121;52.584;9.694;2022-12-20T12:13:17;100765.25;;;11.15;68.43
77147;BME280;66121;52.584;9.694;2022-12-20T12:16:02;100765.69;;;11.17;68.18
77147;BME280;66121;52.584;9.694;2022-12-20T12:18:32;100779.41;;;11.06;68.17
77147;BME280;66121;52.584;9.694;2022-12-20T12:21:04;100777.09;;;11.12;68.49
77147;BME280;66121;52.584;9.694;2022-12-20T12:26:37;100759.69;;;11.04;69.06
77147;BME280;66121;52.584;9.694;2022-12-20T12:29:15;100754.03;;;10.90;69.34
77147;BME280;66121;52.584;9.694;2022-12-20T12:39:49;100743.09;;;11.00;68.78
77147;BME280;66121;52.584;9.694;2022-12-20T12:45:28;100735.19;;;11.02;68.50
77147;BME280;66121;52.584;9.694;2022-12-20T12:48:03;100731.69;;;11.06;68.58
77147;BME280;66121;52.584;9.694;2022-12-20T12:50:48;100728.47;;;11.00;68.69
77147;BME280;66121;52.584;9.694;2022-12-20T12:53:16;100727.66;;;10.92;68.95
77147;BME280;66121;52.584;9.694;2022-12-20T13:00:56;100747.72;;;10.89;69.95
77147;BME280;66121;52.584;9.694;2022-12-20T13:03:43;100740.66;;;10.92;69.40
77147;BME280;66121;52.584;9.694;2022-12-20T13:16:53;100744.66;;;10.98;69.24
77147;BME280;66121;52.584;9.694;2022-12-20T13:19:38;100744.66;;;10.98;68.76
77147;BME280;66121;52.584;9.694;2022-12-20T13:24:55;100726.75;;;10.74;70.32
77147;BME280;66121;52.584;9.694;2022-12-20T13:27:27;100737.66;;;10.60;70.75
77147;BME280;66121;52.584;9.694;2022-12-20T13:32:53;100738.44;;;10.61;70.80
77147;BME280;66121;52.584;9.694;2022-12-20T13:37:54;100740.91;;;10.69;70.65
77147;BME280;66121;52.584;9.694;2022-12-20T13:40:35;100717.63;;;10.70;70.62
77147;BME280;66121;52.584;9.694;2022-12-20T13:43:06;100732.63;;;10.69;70.36
77147;BME280;66121;52.584;9.694;2022-12-20T13:45:37;100741.31;;;10.75;69.75
77147;BME280;66121;52.584;9.694;2022-12-20T13:48:13;100735.03;;;10.78;70.06
77147;BME280;66121;52.584;9.694;2022-12-20T13:50:40;100739.69;;;10.67;70.00
77147;BME280;66121;52.584;9.694;2022-12-20T13:53:22;100742.38;;;10.60;70.17
77147;BME280;66121;52.584;9.694;2022-12-20T13:55:48;100727.72;;;10.52;70.14
77147;BME280;66121;52.584;9.694;2022-12-20T13:58:20;100719.94;;;10.61;69.83
77147;BME280;66121;52.584;9.694;2022-12-20T14:00:47;100737.31;;;10.65;69.72
77147;BME280;66121;52.584;9.694;2022-12-20T14:05:48;100725.06;;;10.63;69.22
77147;BME280;66121;52.584;9.694;2022-12-20T14:08:21;100736.09;;;10.59;69.58
77147;BME280;66121;52.584;9.694;2022-12-20T14:10:51;100720.28;;;10.56;70.14
77147;BME280;66121;52.584;9.694;2022-12-20T14:13:22;100732.91;;;10.57;70.15
77147;BME280;66121;52.584;9.694;2022-12-20T14:15:48;100733.59;;;10.47;70.67
77147;BME280;66121;52.584;9.694;2022-12-20T14:18:24;100736.00;;;10.49;70.42
77147;BME280;66121;52.584;9.694;2022-12-20T14:21:01;100732.81;;;10.47;69.96
77147;BME280;66121;52.584;9.694;2022-12-20T14:23:44;100730.47;;;10.49;70.21
77147;BME280;66121;52.584;9.694;2022-12-20T14:26:14;100740.72;;;10.48;70.53
77147;BME280;66121;52.584;9.694;2022-12-20T14:28:43;100738.34;;;10.47;70.91
77147;BME280;66121;52.584;9.694;2022-12-20T14:36:45;100731.78;;;10.62;69.26
77147;BME280;66121;52.584;9.694;2022-12-20T14:39:28;100723.00;;;10.49;69.78
77147;BME280;66121;52.584;9.694;2022-12-20T14:42:00;100738.00;;;10.52;70.15
77147;BME280;66121;52.584;9.694;2022-12-20T14:44:28;100695.66;;;10.33;70.08
77147;BME280;66121;52.584;9.694;2022-12-20T14:46:56;100719.81;;;10.47;70.06
77147;BME280;66121;52.584;9.694;2022-12-20T14:49:27;100726.56;;;10.53;70.13